createdAt,value
2018-09-30T00:01:00.720Z,101531.36
2018-09-30T00:03:30.123Z,101542.88
2018-09-30T00:05:59.706Z,101540.36
2018-09-30T00:08:29.343Z,101536.67
2018-09-30T00:10:58.381Z,101538.81
2018-09-30T00:13:27.412Z,101547.06
2018-09-30T00:15:56.702Z,101544.00
2018-09-30T00:18:25.749Z,101542.46
2018-09-30T00:20:55.437Z,101540.99
2018-09-30T00:23:24.530Z,101541.95
2018-09-30T00:25:58.544Z,101538.05
2018-09-30T00:28:27.922Z,101533.36
2018-09-30T00:30:57.338Z,101552.46
2018-09-30T00:33:26.938Z,101546.86
2018-09-30T00:35:56.517Z,101561.75
2018-09-30T00:38:25.934Z,101567.20
2018-09-30T00:40:55.051Z,101553.72
2018-09-30T00:43:24.327Z,101564.27
2018-09-30T00:45:53.984Z,101568.30
2018-09-30T00:48:23.054Z,101560.61
2018-09-30T00:50:52.065Z,101568.73
2018-09-30T00:53:21.452Z,101580.20
2018-09-30T00:55:50.661Z,101574.20
2018-09-30T00:58:19.684Z,101582.80
2018-09-30T01:00:48.767Z,101575.38
2018-09-30T01:03:18.208Z,101589.59
2018-09-30T01:05:47.871Z,101586.16
2018-09-30T01:08:17.113Z,101586.61
2018-09-30T01:10:46.391Z,101582.50
2018-09-30T01:13:15.432Z,101580.58
2018-09-30T01:15:44.639Z,101586.64
2018-09-30T01:18:13.732Z,101586.27
2018-09-30T01:20:42.838Z,101585.87
2018-09-30T01:23:11.884Z,101589.36
2018-09-30T01:25:40.988Z,101585.91
2018-09-30T01:28:10.147Z,101598.44
2018-09-30T01:30:39.211Z,101595.38
2018-09-30T01:33:08.318Z,101586.34
2018-09-30T01:35:37.540Z,101578.40
2018-09-30T01:38:07.048Z,101576.10
2018-09-30T01:40:36.414Z,101577.20
2018-09-30T01:43:05.492Z,101586.77
2018-09-30T01:45:34.797Z,101593.56
2018-09-30T01:48:04.448Z,101594.52
2018-09-30T01:50:33.764Z,101572.69
2018-09-30T01:53:03.288Z,101590.84
2018-09-30T01:55:32.755Z,101603.55
2018-09-30T01:58:02.338Z,101599.34
2018-09-30T02:00:32.273Z,101596.93
2018-09-30T02:03:01.435Z,101599.94
2018-09-30T02:05:30.655Z,101601.11
2018-09-30T02:07:59.858Z,101605.93
2018-09-30T02:10:29.638Z,101605.28
2018-09-30T02:12:58.948Z,101624.62
2018-09-30T02:15:28.061Z,101624.33
2018-09-30T02:17:57.403Z,101618.79
2018-09-30T02:20:26.566Z,101625.58
2018-09-30T02:22:55.742Z,101611.27
2018-09-30T02:25:24.806Z,101620.25
2018-09-30T02:27:53.932Z,101622.57
2018-09-30T02:30:23.251Z,101624.22
2018-09-30T02:32:52.328Z,101613.36
2018-09-30T02:35:21.390Z,101620.91
2018-09-30T02:37:50.474Z,101618.54
2018-09-30T02:40:19.568Z,101614.48
2018-09-30T02:42:49.127Z,101619.30
2018-09-30T02:45:18.548Z,101620.91
2018-09-30T02:47:47.654Z,101622.06
2018-09-30T02:50:17.116Z,101620.59
2018-09-30T02:52:46.309Z,101627.23
2018-09-30T02:55:16.214Z,101612.60
2018-09-30T02:57:45.351Z,101636.35
2018-09-30T03:00:14.472Z,101631.33
2018-09-30T03:02:43.589Z,101633.09
2018-09-30T03:05:12.600Z,101641.34
2018-09-30T03:07:46.722Z,101642.31
2018-09-30T03:10:16.031Z,101640.67
2018-09-30T03:12:45.108Z,101634.16
2018-09-30T03:15:14.144Z,101642.31
2018-09-30T03:17:43.378Z,101635.45
2018-09-30T03:20:12.389Z,101623.33
2018-09-30T03:22:41.591Z,101642.12
2018-09-30T03:25:11.048Z,101629.09
2018-09-30T03:27:40.178Z,101630.20
2018-09-30T03:30:09.332Z,101642.12
2018-09-30T03:32:38.736Z,101643.06
2018-09-30T03:35:08.491Z,101626.41
2018-09-30T03:37:37.593Z,101650.95
2018-09-30T03:40:06.736Z,101646.80
2018-09-30T03:42:35.945Z,101646.52
2018-09-30T03:45:05.846Z,101644.37
2018-09-30T03:47:35.140Z,101634.88
2018-09-30T03:50:04.590Z,101649.66
2018-09-30T03:52:33.746Z,101638.44
2018-09-30T03:55:02.784Z,101656.81
2018-09-30T03:57:32.177Z,101660.49
2018-09-30T04:00:01.871Z,101657.55
2018-09-30T04:02:31.716Z,101655.36
2018-09-30T04:05:01.007Z,101654.84
2018-09-30T04:07:30.240Z,101663.20
2018-09-30T04:09:59.763Z,101660.37
2018-09-30T04:12:29.093Z,101662.77
2018-09-30T04:14:58.487Z,101667.44
2018-09-30T04:17:28.038Z,101669.44
2018-09-30T04:19:57.104Z,101666.30
2018-09-30T04:22:26.151Z,101670.30
2018-09-30T04:24:55.227Z,101677.32
2018-09-30T04:27:24.465Z,101669.16
2018-09-30T04:29:53.951Z,101671.71
2018-09-30T04:32:23.017Z,101683.21
2018-09-30T04:34:52.035Z,101679.33
2018-09-30T04:37:21.189Z,101666.22
2018-09-30T04:39:50.227Z,101683.45
2018-09-30T04:42:19.530Z,101673.59
2018-09-30T04:44:48.856Z,101671.55
2018-09-30T04:47:18.092Z,101677.87
2018-09-30T04:49:47.321Z,101686.98
2018-09-30T04:52:16.440Z,101691.25
2018-09-30T04:54:45.662Z,101689.38
2018-09-30T04:57:14.718Z,101702.75
2018-09-30T04:59:43.914Z,101707.45
2018-09-30T05:02:13.082Z,101707.58
2018-09-30T05:04:42.200Z,101709.43
2018-09-30T05:07:11.340Z,101713.53
2018-09-30T05:09:40.488Z,101728.14
2018-09-30T05:12:09.564Z,101726.92
2018-09-30T05:14:38.702Z,101719.77
2018-09-30T05:17:07.977Z,101738.02
2018-09-30T05:19:37.258Z,101737.66
2018-09-30T05:22:06.511Z,101733.33
2018-09-30T05:24:35.638Z,101742.47
2018-09-30T05:27:04.727Z,101741.38
2018-09-30T05:29:33.814Z,101747.13
2018-09-30T05:32:02.946Z,101741.84
2018-09-30T05:34:32.112Z,101746.39
2018-09-30T05:37:01.770Z,101756.05
2018-09-30T05:39:30.752Z,101760.02
2018-09-30T05:41:59.948Z,101753.09
2018-09-30T05:44:29.268Z,101751.00
2018-09-30T05:46:58.352Z,101754.88
2018-09-30T05:49:27.424Z,101762.55
2018-09-30T05:51:56.436Z,101760.94
2018-09-30T05:54:25.735Z,101766.94
2018-09-30T05:56:54.920Z,101764.89
2018-09-30T05:59:24.416Z,101755.95
2018-09-30T06:01:53.448Z,101766.89
2018-09-30T06:04:22.671Z,101758.78
2018-09-30T06:06:51.816Z,101768.94
2018-09-30T06:09:21.039Z,101777.42
2018-09-30T06:11:50.178Z,101776.64
2018-09-30T06:14:19.413Z,101778.20
2018-09-30T06:16:48.496Z,101774.33
2018-09-30T06:19:17.993Z,101774.09
2018-09-30T06:21:47.238Z,101779.00
2018-09-30T06:24:16.456Z,101785.67
2018-09-30T06:26:45.475Z,101769.58
2018-09-30T06:29:14.641Z,101781.98
2018-09-30T06:31:43.839Z,101786.96
2018-09-30T06:34:12.897Z,101762.27
2018-09-30T06:36:42.032Z,101775.75
2018-09-30T06:39:11.307Z,101776.05
2018-09-30T06:41:40.509Z,101770.57
2018-09-30T06:44:09.610Z,101788.55
2018-09-30T06:46:38.732Z,101796.41
2018-09-30T06:49:08.144Z,101773.77
2018-09-30T06:51:37.333Z,101788.39
2018-09-30T06:54:06.480Z,101777.22
2018-09-30T06:56:35.814Z,101773.63
2018-09-30T06:59:05.004Z,101777.91
2018-09-30T07:01:34.212Z,101779.83
2018-09-30T07:04:03.387Z,101777.83
2018-09-30T07:06:32.426Z,101771.38
2018-09-30T07:09:01.945Z,101781.10
2018-09-30T07:11:30.935Z,101788.59
2018-09-30T07:14:00.077Z,101778.68
2018-09-30T07:16:29.103Z,101776.59
2018-09-30T07:18:58.226Z,101779.33
2018-09-30T07:21:27.528Z,101783.60
2018-09-30T07:23:56.617Z,101782.30
2018-09-30T07:26:26.386Z,101783.51
2018-09-30T07:28:55.588Z,101780.64
2018-09-30T07:31:24.612Z,101799.51
2018-09-30T07:33:53.785Z,101797.09
2018-09-30T07:36:22.925Z,101801.48
2018-09-30T07:38:51.993Z,101775.70
2018-09-30T07:41:21.149Z,101787.48
2018-09-30T07:43:50.274Z,101780.27
2018-09-30T07:46:19.387Z,101786.08
2018-09-30T07:48:48.580Z,101786.58
2018-09-30T07:51:17.878Z,101786.22
2018-09-30T07:53:47.044Z,101770.77
2018-09-30T07:56:16.080Z,101775.39
2018-09-30T07:58:45.281Z,101770.55
2018-09-30T08:01:14.469Z,101782.31
2018-09-30T08:03:43.460Z,101784.37
2018-09-30T08:06:12.513Z,101781.69
2018-09-30T08:08:41.650Z,101786.06
2018-09-30T08:11:10.856Z,101785.69
2018-09-30T08:13:40.008Z,101772.05
2018-09-30T08:16:09.455Z,101795.55
2018-09-30T08:18:38.588Z,101776.91
2018-09-30T08:21:07.966Z,101780.33
2018-09-30T08:23:37.095Z,101791.14
2018-09-30T08:26:06.492Z,101774.36
2018-09-30T08:28:35.665Z,101786.68
2018-09-30T08:31:04.777Z,101781.59
2018-09-30T08:33:34.002Z,101782.84
2018-09-30T08:36:08.305Z,101767.38
2018-09-30T08:38:38.404Z,101777.56
2018-09-30T08:41:09.974Z,101777.84
2018-09-30T08:43:40.272Z,101783.84
2018-09-30T08:46:10.040Z,101777.55
2018-09-30T08:48:39.175Z,101764.42
2018-09-30T08:51:08.587Z,101773.83
2018-09-30T08:53:38.450Z,101771.97
2018-09-30T08:56:07.564Z,101770.89
2018-09-30T08:58:36.660Z,101763.87
2018-09-30T09:01:05.885Z,101737.39
2018-09-30T09:03:35.541Z,101768.78
2018-09-30T09:06:04.655Z,101763.19
2018-09-30T09:08:33.709Z,101769.72
2018-09-30T09:11:03.020Z,101773.98
2018-09-30T09:13:32.410Z,101765.87
2018-09-30T09:16:01.467Z,101756.73
2018-09-30T09:18:30.568Z,101771.48
2018-09-30T09:20:59.726Z,101763.55
2018-09-30T09:23:28.933Z,101767.31
2018-09-30T09:25:58.184Z,101760.75
2018-09-30T09:28:27.240Z,101764.71
2018-09-30T09:30:56.437Z,101777.17
2018-09-30T09:33:25.523Z,101764.89
2018-09-30T09:35:54.645Z,101768.52
2018-09-30T09:38:23.814Z,101763.45
2018-09-30T09:40:53.342Z,101777.69
2018-09-30T09:43:22.412Z,101766.48
2018-09-30T09:45:51.466Z,101759.26
2018-09-30T09:48:20.557Z,101765.25
2018-09-30T09:50:49.669Z,101748.01
2018-09-30T09:53:18.840Z,101763.24
2018-09-30T09:55:47.986Z,101762.97
2018-09-30T09:58:17.083Z,101761.14
2018-09-30T10:00:46.977Z,101766.57
2018-09-30T10:03:17.166Z,101771.81
2018-09-30T10:05:46.268Z,101757.41
2018-09-30T10:08:15.337Z,101753.74
2018-09-30T10:10:44.394Z,101751.50
2018-09-30T10:13:13.895Z,101739.53
2018-09-30T10:15:42.929Z,101746.75
2018-09-30T10:18:11.970Z,101744.10
2018-09-30T10:20:41.096Z,101747.80
2018-09-30T10:23:10.537Z,101739.36
2018-09-30T10:25:39.916Z,101742.00
2018-09-30T10:28:09.053Z,101731.45
2018-09-30T10:30:38.152Z,101739.14
2018-09-30T10:33:07.476Z,101735.94
2018-09-30T10:35:36.989Z,101722.98
2018-09-30T10:38:06.173Z,101727.58
2018-09-30T10:40:35.263Z,101726.23
2018-09-30T10:43:04.419Z,101720.91
2018-09-30T10:45:33.510Z,101711.02
2018-09-30T10:48:02.649Z,101707.45
2018-09-30T10:50:31.777Z,101716.92
2018-09-30T10:53:01.052Z,101707.73
2018-09-30T10:55:30.280Z,101717.73
2018-09-30T10:57:59.324Z,101708.50
2018-09-30T11:00:28.501Z,101713.08
2018-09-30T11:02:57.615Z,101716.16
2018-09-30T11:05:27.085Z,101710.47
2018-09-30T11:07:56.673Z,101701.13
2018-09-30T11:10:26.123Z,101702.86
2018-09-30T11:12:55.484Z,101685.31
2018-09-30T11:15:24.535Z,101716.62
2018-09-30T11:17:53.918Z,101700.11
2018-09-30T11:20:23.029Z,101689.57
2018-09-30T11:22:52.765Z,101687.75
2018-09-30T11:25:21.977Z,101695.02
2018-09-30T11:27:51.989Z,101689.64
2018-09-30T11:30:21.020Z,101683.78
2018-09-30T11:32:50.129Z,101681.11
2018-09-30T11:35:19.228Z,101686.61
2018-09-30T11:37:48.438Z,101669.38
2018-09-30T11:40:17.576Z,101689.55
2018-09-30T11:42:46.669Z,101672.47
2018-09-30T11:45:15.818Z,101677.50
2018-09-30T11:47:44.862Z,101674.13
2018-09-30T11:50:14.637Z,101690.14
2018-09-30T11:52:43.866Z,101668.05
2018-09-30T11:55:12.930Z,101673.86
2018-09-30T11:57:42.480Z,101664.66
2018-09-30T12:00:11.555Z,101666.05
2018-09-30T12:02:40.936Z,101669.59
2018-09-30T12:05:10.082Z,101667.05
2018-09-30T12:07:39.120Z,101655.23
2018-09-30T12:10:08.518Z,101660.87
2018-09-30T12:12:37.911Z,101651.67
2018-09-30T12:15:06.963Z,101657.28
2018-09-30T12:17:36.113Z,101658.61
2018-09-30T12:20:05.545Z,101649.39
2018-09-30T12:22:34.682Z,101646.05
2018-09-30T12:25:03.759Z,101650.44
2018-09-30T12:27:32.974Z,101637.07
2018-09-30T12:30:02.087Z,101637.81
2018-09-30T12:32:31.240Z,101629.98
2018-09-30T12:35:00.749Z,101639.58
2018-09-30T12:37:29.837Z,101636.05
2018-09-30T12:39:58.862Z,101635.23
2018-09-30T12:42:28.210Z,101634.91
2018-09-30T12:44:57.636Z,101618.11
2018-09-30T12:47:26.914Z,101623.53
2018-09-30T12:49:56.192Z,101615.12
2018-09-30T12:52:25.216Z,101612.40
2018-09-30T12:54:54.247Z,101618.47
2018-09-30T12:57:23.760Z,101611.16
2018-09-30T12:59:53.095Z,101614.56
2018-09-30T13:02:22.141Z,101616.05
2018-09-30T13:04:51.370Z,101600.64
2018-09-30T13:07:20.411Z,101598.34
2018-09-30T13:09:49.451Z,101602.00
2018-09-30T13:12:18.676Z,101599.17
2018-09-30T13:14:47.724Z,101602.63
2018-09-30T13:17:16.908Z,101599.07
2018-09-30T13:19:46.014Z,101596.52
2018-09-30T13:22:15.105Z,101602.52
2018-09-30T13:24:44.233Z,101600.65
2018-09-30T13:27:13.534Z,101602.76
2018-09-30T13:29:42.565Z,101606.42
2018-09-30T13:32:11.735Z,101601.79
2018-09-30T13:34:40.798Z,101603.31
2018-09-30T13:37:09.813Z,101596.16
2018-09-30T13:39:38.912Z,101588.72
2018-09-30T13:42:08.416Z,101577.30
2018-09-30T13:44:37.994Z,101588.35
2018-09-30T13:47:07.085Z,101586.14
2018-09-30T13:49:36.228Z,101589.24
2018-09-30T13:52:05.324Z,101584.87
2018-09-30T13:54:34.419Z,101584.30
2018-09-30T13:57:03.564Z,101573.83
2018-09-30T13:59:32.664Z,101581.27
2018-09-30T14:02:01.720Z,101577.44
2018-09-30T14:04:31.407Z,101570.05
2018-09-30T14:07:00.627Z,101574.44
2018-09-30T14:09:29.715Z,101570.07
2018-09-30T14:11:58.762Z,101582.63
2018-09-30T14:14:28.397Z,101586.14
2018-09-30T14:16:57.509Z,101576.17
2018-09-30T14:19:26.606Z,101579.47
2018-09-30T14:21:55.883Z,101587.69
2018-09-30T14:24:25.101Z,101588.92
2018-09-30T14:26:54.184Z,101586.60
2018-09-30T14:29:23.494Z,101587.17
2018-09-30T14:31:52.501Z,101582.31
2018-09-30T14:34:21.720Z,101583.49
2018-09-30T14:36:50.900Z,101570.44
2018-09-30T14:39:20.238Z,101587.13
2018-09-30T14:41:49.341Z,101586.65
2018-09-30T14:44:18.410Z,101579.31
2018-09-30T14:46:47.736Z,101574.80
2018-09-30T14:49:17.324Z,101585.23
2018-09-30T14:51:46.457Z,101582.39
2018-09-30T14:54:15.956Z,101567.45
2018-09-30T14:56:45.200Z,101573.15
2018-09-30T14:59:14.235Z,101568.86
2018-09-30T15:01:43.384Z,101575.83
2018-09-30T15:04:12.478Z,101567.61
2018-09-30T15:06:41.650Z,101558.45
2018-09-30T15:09:11.724Z,101569.23
2018-09-30T15:11:41.149Z,101569.33
2018-09-30T15:14:10.310Z,101565.09
2018-09-30T15:16:39.380Z,101565.98
2018-09-30T15:19:08.407Z,101563.23
2018-09-30T15:21:37.453Z,101557.34
2018-09-30T15:24:06.683Z,101562.86
2018-09-30T15:26:35.725Z,101560.06
2018-09-30T15:29:04.872Z,101564.38
2018-09-30T15:31:33.984Z,101558.16
2018-09-30T15:34:03.393Z,101557.66
2018-09-30T15:36:32.588Z,101554.32
2018-09-30T15:39:01.791Z,101554.66
2018-09-30T15:41:30.894Z,101568.22
2018-09-30T15:43:59.911Z,101565.41
2018-09-30T15:46:29.054Z,101545.17
2018-09-30T15:48:58.195Z,101566.88
2018-09-30T15:51:27.298Z,101563.43
2018-09-30T15:53:56.407Z,101563.80
2018-09-30T15:56:25.588Z,101557.38
2018-09-30T15:58:54.752Z,101562.64
2018-09-30T16:01:23.776Z,101563.64
2018-09-30T16:03:52.988Z,101560.15
2018-09-30T16:06:22.099Z,101556.23
2018-09-30T16:08:51.195Z,101567.13
2018-09-30T16:11:20.340Z,101556.05
2018-09-30T16:13:49.354Z,101564.72
2018-09-30T16:16:18.504Z,101555.27
2018-09-30T16:18:47.889Z,101558.16
2018-09-30T16:21:17.000Z,101564.38
2018-09-30T16:23:46.404Z,101555.16
2018-09-30T16:26:15.549Z,101552.30
2018-09-30T16:28:44.628Z,101552.07
2018-09-30T16:31:13.988Z,101553.77
2018-09-30T16:33:43.087Z,101554.41
2018-09-30T16:36:12.305Z,101560.19
2018-09-30T16:38:41.583Z,101563.65
2018-09-30T16:41:10.785Z,101569.69
2018-09-30T16:43:39.827Z,101561.31
2018-09-30T16:46:09.014Z,101556.93
2018-09-30T16:48:38.047Z,101561.12
2018-09-30T16:51:07.454Z,101562.78
2018-09-30T16:53:36.970Z,101554.57
2018-09-30T16:56:06.093Z,101555.90
2018-09-30T16:58:35.103Z,101564.12
2018-09-30T17:01:04.117Z,101559.34
2018-09-30T17:03:33.293Z,101562.45
2018-09-30T17:06:02.396Z,101561.60
2018-09-30T17:08:31.488Z,101561.32
2018-09-30T17:11:00.648Z,101551.50
2018-09-30T17:13:29.735Z,101551.71
2018-09-30T17:15:58.843Z,101560.61
2018-09-30T17:18:28.029Z,101566.16
2018-09-30T17:20:57.183Z,101563.52
2018-09-30T17:23:26.902Z,101555.66
2018-09-30T17:25:55.981Z,101553.47
2018-09-30T17:28:25.036Z,101554.48
2018-09-30T17:30:54.224Z,101553.13
2018-09-30T17:33:23.834Z,101545.49
2018-09-30T17:35:52.982Z,101551.77
2018-09-30T17:38:22.040Z,101545.08
2018-09-30T17:40:51.481Z,101549.20
2018-09-30T17:43:20.629Z,101553.30
2018-09-30T17:45:50.025Z,101540.54
2018-09-30T17:48:19.183Z,101553.00
2018-09-30T17:50:48.366Z,101555.12
2018-09-30T17:53:17.513Z,101554.73
2018-09-30T17:55:46.672Z,101548.91
2018-09-30T17:58:15.724Z,101555.77
2018-09-30T18:00:44.852Z,101538.40
2018-09-30T18:03:14.161Z,101546.13
2018-09-30T18:05:43.203Z,101553.80
2018-09-30T18:08:12.693Z,101555.09
2018-09-30T18:10:41.909Z,101541.17
2018-09-30T18:13:11.079Z,101537.63
2018-09-30T18:15:40.287Z,101540.92
2018-09-30T18:18:09.901Z,101537.73
2018-09-30T18:20:38.992Z,101534.65
2018-09-30T18:23:08.128Z,101537.98
2018-09-30T18:25:37.265Z,101534.31
2018-09-30T18:28:06.263Z,101531.53
2018-09-30T18:30:35.332Z,101532.45
2018-09-30T18:33:04.330Z,101533.62
2018-09-30T18:35:33.568Z,101526.25
2018-09-30T18:38:02.810Z,101531.13
2018-09-30T18:40:48.928Z,101523.27
2018-09-30T18:43:18.565Z,101538.19
2018-09-30T18:45:47.620Z,101520.88
2018-09-30T18:48:16.696Z,101519.39
2018-09-30T18:50:45.760Z,101523.98
2018-09-30T18:53:14.908Z,101516.77
2018-09-30T18:55:43.953Z,101518.45
2018-09-30T18:58:13.322Z,101515.73
2018-09-30T19:00:42.432Z,101512.58
2018-09-30T19:03:11.599Z,101518.98
2018-09-30T19:05:40.687Z,101505.94
2018-09-30T19:08:09.725Z,101510.63
2018-09-30T19:10:39.168Z,101514.16
2018-09-30T19:13:08.265Z,101500.98
2018-09-30T19:15:37.388Z,101498.39
2018-09-30T19:18:06.448Z,101491.75
2018-09-30T19:20:35.612Z,101499.05
2018-09-30T19:23:04.777Z,101489.98
2018-09-30T19:25:34.176Z,101494.37
2018-09-30T19:28:03.287Z,101486.86
2018-09-30T19:30:32.411Z,101487.56
2018-09-30T19:33:01.406Z,101483.58
2018-09-30T19:35:30.719Z,101488.39
2018-09-30T19:38:00.088Z,101476.33
2018-09-30T19:40:29.142Z,101473.87
2018-09-30T19:42:58.312Z,101473.54
2018-09-30T19:45:27.550Z,101470.85
2018-09-30T19:47:56.700Z,101463.11
2018-09-30T19:50:26.183Z,101466.00
2018-09-30T19:52:55.336Z,101462.31
2018-09-30T19:55:24.525Z,101466.00
2018-09-30T19:57:53.797Z,101454.97
2018-09-30T20:00:22.832Z,101454.30
2018-09-30T20:02:51.934Z,101450.77
2018-09-30T20:05:21.044Z,101455.09
2018-09-30T20:07:50.150Z,101453.26
2018-09-30T20:10:19.214Z,101444.00
2018-09-30T20:12:48.315Z,101441.27
2018-09-30T20:15:17.295Z,101444.80
2018-09-30T20:17:46.699Z,101432.47
2018-09-30T20:20:16.301Z,101420.87
2018-09-30T20:22:45.736Z,101429.92
2018-09-30T20:25:14.956Z,101421.81
2018-09-30T20:27:44.126Z,101416.52
2018-09-30T20:30:13.340Z,101428.92
2018-09-30T20:32:42.391Z,101427.42
2018-09-30T20:35:11.716Z,101416.78
2018-09-30T20:37:41.397Z,101418.03
2018-09-30T20:40:10.558Z,101416.60
2018-09-30T20:42:39.924Z,101410.70
2018-09-30T20:45:09.617Z,101412.59
2018-09-30T20:47:38.921Z,101400.36
2018-09-30T20:50:08.520Z,101397.47
2018-09-30T20:52:37.614Z,101405.14
2018-09-30T20:55:06.672Z,101399.66
2018-09-30T20:57:35.877Z,101399.34
2018-09-30T21:00:05.674Z,101403.66
2018-09-30T21:02:34.801Z,101385.53
2018-09-30T21:05:12.499Z,101397.73
2018-09-30T21:07:41.868Z,101395.13
2018-09-30T21:10:11.723Z,101389.09
2018-09-30T21:12:41.091Z,101385.20
2018-09-30T21:15:10.104Z,101386.34
2018-09-30T21:17:39.488Z,101401.05
2018-09-30T21:20:08.604Z,101375.49
2018-09-30T21:22:37.624Z,101372.03
2018-09-30T21:25:06.961Z,101376.73
2018-09-30T21:27:36.098Z,101372.97
2018-09-30T21:30:05.405Z,101369.91
2018-09-30T21:32:34.620Z,101373.55
2018-09-30T21:35:04.505Z,101368.88
2018-09-30T21:37:33.878Z,101363.61
2018-09-30T21:40:03.036Z,101372.88
2018-09-30T21:42:32.219Z,101357.47
2018-09-30T21:45:01.480Z,101362.81
2018-09-30T21:47:30.580Z,101352.41
2018-09-30T21:49:59.754Z,101352.66
2018-09-30T21:52:29.056Z,101351.09
2018-09-30T21:54:58.437Z,101352.59
2018-09-30T21:57:27.682Z,101351.07
2018-09-30T21:59:56.766Z,101343.16
2018-09-30T22:02:25.803Z,101345.13
2018-09-30T22:04:55.557Z,101343.68
2018-09-30T22:07:24.888Z,101333.94
2018-09-30T22:09:54.304Z,101337.26
2018-09-30T22:12:23.819Z,101336.48
2018-09-30T22:14:52.855Z,101329.06
2018-09-30T22:17:21.980Z,101331.70
2018-09-30T22:19:51.117Z,101339.23
2018-09-30T22:22:20.261Z,101334.19
2018-09-30T22:24:49.309Z,101326.06
2018-09-30T22:27:18.618Z,101329.35
2018-09-30T22:29:47.940Z,101326.10
2018-09-30T22:32:18.268Z,101323.77
2018-09-30T22:34:47.441Z,101315.98
2018-09-30T22:37:16.634Z,101319.48
2018-09-30T22:39:45.899Z,101317.84
2018-09-30T22:42:15.056Z,101319.78
2018-09-30T22:44:44.372Z,101314.27
2018-09-30T22:47:13.440Z,101310.79
2018-09-30T22:49:42.620Z,101309.66
2018-09-30T22:52:11.857Z,101310.12
2018-09-30T22:54:40.997Z,101311.72
2018-09-30T22:57:10.069Z,101303.44
2018-09-30T22:59:39.326Z,101306.55
2018-09-30T23:02:08.904Z,101297.72
2018-09-30T23:04:37.980Z,101301.17
2018-09-30T23:07:07.043Z,101289.58
2018-09-30T23:09:36.177Z,101293.75
2018-09-30T23:12:05.317Z,101286.12
2018-09-30T23:14:34.468Z,101280.45
2018-09-30T23:17:03.516Z,101279.48
2018-09-30T23:19:32.640Z,101275.59
2018-09-30T23:22:01.835Z,101265.30
2018-09-30T23:24:30.906Z,101261.09
2018-09-30T23:27:00.005Z,101266.88
2018-09-30T23:29:29.112Z,101262.17
2018-09-30T23:31:58.304Z,101254.92
2018-09-30T23:34:27.482Z,101237.88
2018-09-30T23:36:57.756Z,101253.09
2018-09-30T23:39:27.240Z,101251.45
2018-09-30T23:41:56.377Z,101221.64
2018-09-30T23:44:25.585Z,101232.04
2018-09-30T23:46:54.641Z,101227.73
2018-09-30T23:49:23.809Z,101224.61
2018-09-30T23:51:53.000Z,101218.10
2018-09-30T23:54:22.455Z,101219.66
2018-09-30T23:56:51.672Z,101217.37
2018-09-30T23:59:20.762Z,101213.65
